Wednesday, December 12, 2018, 10:54 PM EST
Back to Local

KELM, Elmira County Airport

Location: Horseheads, NY, United States Lat: 42.167
Local Time: 10:54 PM EST ( 3:54 GMT) Lon: -76.9
Time Zone: US/Eastern Elev: 954 ft

Show me the last for .
Show Coded

Time T Td Feel RH Dir Speed Gust Alt SLP Vis Weather Sky Remarks
2018-12-12 21:53 33 23 - 66 - Calm - 30.12 30.14 9 CLR None
2018-12-12 20:53 33 24 - 69 - Calm - 30.12 30.15 9 CLR None
2018-12-12 19:53 32 24 29 72 110° 3 - 30.11 30.14 8 CLR None
2018-12-12 18:53 32 24 26 72 110° 6 - 30.11 30.14 9 CLR 6-hr Min Temp (7pm): 30.0°F
6-hr Max Temp (7pm): 35.1°F
2018-12-12 17:53 31 25 - 78 - Calm - 30.12 30.14 7 BKN034 None
2018-12-12 16:53 32 26 25 78 60° 8 - 30.09 30.12 8 SCT031 None
2018-12-12 15:53 34 26 30 72 60° 5 - 30.11 30.14 7 OVC032 None
2018-12-12 14:53 34 26 29 72 50° 6 - 30.10 30.13 6 HZ OVC030 None
2018-12-12 14:15 34 25 29 69 60° 6 - 30.10 - 7 OVC031 None
2018-12-12 13:53 34 26 29 72 70° 6 - 30.10 30.13 6 HZ OVC029 None
2018-12-12 12:53 35 27 29 72 80° 7 - 30.10 30.13 5 HZ OVC026 6-hr Min Temp (1pm): 33.1°F
6-hr Max Temp (1pm): 36.0°F
2018-12-12 11:53 35 24 30 63 250° 6 - 30.10 30.13 10 OVC028 None
2018-12-12 10:53 35 25 31 66 10° 5 - 30.10 30.13 9 OVC028 None
2018-12-12 09:53 34 27 - 75 - Calm - 30.10 30.13 7 FEW021 BKN029 None
2018-12-12 09:38 34 27 - 75 - Calm - 30.10 - 7 SCT021 BKN029 OVC035 None
2018-12-12 08:53 34 27 31 75 240° 3 - 30.10 30.13 6 HZ SCT019 OVC038 None
2018-12-12 08:41 33 27 30 77 240° 3 - 30.09 - 6 HZ FEW021 OVC036 None
2018-12-12 07:53 33 26 29 75 260° 5 - 30.09 30.12 7 BKN019 OVC024 None
2018-12-12 06:53 33 25 30 71 250° 3 - 30.08 30.10 8 OVC019 6-hr Precip Total (7am): 0.00"
24-hr Precip Total (7am): 0.01"
6-hr Min Temp (7am): 30.9°F
6-hr Max Temp (7am): 33.1°F
2018-12-12 05:53 33 25 27 71 260° 7 - 30.06 30.09 8 BKN018 OVC032 None
2018-12-12 04:53 32 25 26 74 260° 7 - 30.04 30.07 8 OVC018 None
2018-12-12 04:37 32 25 25 74 270° 8 - 30.03 - 7 BKN020 OVC060 None
2018-12-12 04:24 32 25 24 74 280° 9 - 30.02 - 7 SCT019 OVC060 None
2018-12-12 03:53 32 24 26 72 290° 7 - 30.02 30.05 7 OVC018 6-hr Precip Total (4am): 0.00"
2018-12-12 02:53 31 24 24 75 240° 7 - 30.01 30.04 7 OVC020 None
2018-12-12 02:37 31 24 26 75 230° 5 - 30.01 - 7 BKN020 OVC070 None
2018-12-12 01:53 31 23 25 72 280° 6 - 29.99 30.02 7 OVC070 1-hr Precip Total: Trace
2018-12-12 00:53 31 23 23 72 280° 9 - 29.98 30.01 6 HZ OVC055 6-hr Precip Total (1am): 0.01"
6-hr Min Temp (1am): 28.0°F
6-hr Max Temp (1am): 30.9°F
2018-12-11 23:53 30 23 23 74 290° 7 - 29.97 30.00 6 HZ BKN050 OVC060 24-hr Min Temp (12am): 28.0°F
24-hr Max Temp (12am): 35.1°F

Support USWX by starting your Amazon purchase here.